createdAt,value
2018-09-01T00:00:09.681Z,0
2018-09-01T00:01:10.745Z,0
2018-09-01T00:02:11.762Z,0
2018-09-01T00:03:12.490Z,0
2018-09-01T00:04:13.215Z,0
2018-09-01T00:05:13.935Z,0
2018-09-01T00:06:14.660Z,0
2018-09-01T00:07:15.380Z,0
2018-09-01T00:08:16.126Z,0
2018-09-01T00:09:17.122Z,0
2018-09-01T00:10:17.858Z,0
2018-09-01T00:11:18.615Z,0
2018-09-01T00:12:19.330Z,0
2018-09-01T00:13:20.037Z,0
2018-09-01T00:14:21.008Z,0
2018-09-01T00:15:21.723Z,0
2018-09-01T00:16:22.497Z,0
2018-09-01T00:17:23.244Z,0
2018-09-01T00:18:23.971Z,0
2018-09-01T00:19:24.698Z,0
2018-09-01T00:20:25.413Z,0
2018-09-01T00:21:26.138Z,0
2018-09-01T00:22:26.867Z,0
2018-09-01T00:23:27.581Z,0
2018-09-01T00:24:28.319Z,0
2018-09-01T00:25:29.036Z,0
2018-09-01T00:26:29.802Z,0
2018-09-01T00:27:30.529Z,0
2018-09-01T00:28:31.511Z,0
2018-09-01T00:29:32.250Z,0
2018-09-01T00:30:32.967Z,0
2018-09-01T00:31:33.693Z,0
2018-09-01T00:32:34.415Z,0
2018-09-01T00:33:35.142Z,0
2018-09-01T00:34:35.912Z,0
2018-09-01T00:35:36.945Z,0
2018-09-01T00:36:37.724Z,0
2018-09-01T00:37:39.202Z,0
2018-09-01T00:38:40.007Z,0
2018-09-01T00:39:40.734Z,0
2018-09-01T00:40:41.455Z,0
2018-09-01T00:41:42.170Z,0
2018-09-01T00:42:42.894Z,0
2018-09-01T00:43:43.613Z,0
2018-09-01T00:44:44.325Z,0
2018-09-01T00:45:45.048Z,0
2018-09-01T00:46:45.764Z,0
2018-09-01T00:47:46.481Z,0
2018-09-01T00:48:47.795Z,0
2018-09-01T00:49:48.508Z,0
2018-09-01T00:50:49.244Z,0
2018-09-01T00:51:49.967Z,0
2018-09-01T00:52:50.690Z,0
2018-09-01T00:53:52.010Z,0
2018-09-01T00:54:52.712Z,0
2018-09-01T00:55:53.426Z,0
2018-09-01T00:56:54.153Z,0
2018-09-01T00:57:54.882Z,0
2018-09-01T00:58:55.581Z,0
2018-09-01T00:59:56.308Z,0
2018-09-01T01:00:57.035Z,0
2018-09-01T01:01:57.777Z,0
2018-09-01T01:02:58.497Z,0
2018-09-01T01:03:59.560Z,0
2018-09-01T01:05:00.281Z,0
2018-09-01T01:06:01.260Z,0
2018-09-01T01:07:01.976Z,0
2018-09-01T01:08:02.682Z,0
2018-09-01T01:09:03.453Z,0
2018-09-01T01:10:04.170Z,0
2018-09-01T01:11:04.884Z,0
2018-09-01T01:12:05.614Z,0
2018-09-01T01:13:06.328Z,0
2018-09-01T01:14:07.051Z,0
2018-09-01T01:15:08.027Z,0
2018-09-01T01:16:09.125Z,0
2018-09-01T01:17:09.804Z,0
2018-09-01T01:18:10.760Z,0
2018-09-01T01:19:11.478Z,0
2018-09-01T01:20:12.451Z,0
2018-09-01T01:21:13.164Z,0
2018-09-01T01:22:13.902Z,0
2018-09-01T01:23:14.616Z,0
2018-09-01T01:24:15.325Z,0
2018-09-01T01:25:16.277Z,0
2018-09-01T01:26:16.991Z,0
2018-09-01T01:27:17.997Z,0
2018-09-01T01:28:18.704Z,0
2018-09-01T01:29:19.921Z,0
2018-09-01T01:30:20.636Z,0
2018-09-01T01:31:21.365Z,0
2018-09-01T01:32:22.068Z,0
2018-09-01T01:33:22.795Z,0
2018-09-01T01:34:23.504Z,0
2018-09-01T01:35:24.220Z,0
2018-09-01T01:36:24.943Z,0
2018-09-01T01:37:25.705Z,0
2018-09-01T01:38:26.406Z,0
2018-09-01T01:39:27.367Z,0
2018-09-01T01:40:28.592Z,0
2018-09-01T01:41:29.301Z,0
2018-09-01T01:42:30.064Z,0
2018-09-01T01:43:31.160Z,0
2018-09-01T01:44:31.872Z,0
2018-09-01T01:45:32.579Z,0
2018-09-01T01:46:33.547Z,0
2018-09-01T01:47:34.515Z,0
2018-09-01T01:48:35.294Z,0
2018-09-01T01:49:36.346Z,0
2018-09-01T01:50:36.984Z,0
2018-09-01T01:51:37.706Z,0
2018-09-01T01:52:38.664Z,0
2018-09-01T01:53:39.378Z,0
2018-09-01T01:54:40.095Z,0
2018-09-01T01:55:40.821Z,0
2018-09-01T01:56:41.531Z,0
2018-09-01T01:57:42.496Z,0
2018-09-01T01:58:43.226Z,0
2018-09-01T01:59:43.933Z,0
2018-09-01T02:00:44.651Z,0
2018-09-01T02:01:45.391Z,0
2018-09-01T02:02:46.166Z,0
2018-09-01T02:03:46.884Z,0
2018-09-01T02:04:47.599Z,0
2018-09-01T02:05:48.333Z,0
2018-09-01T02:06:49.044Z,0
2018-09-01T02:07:49.761Z,0
2018-09-01T02:08:50.464Z,0
2018-09-01T02:09:51.426Z,0
2018-09-01T02:10:52.150Z,0
2018-09-01T02:11:52.865Z,0
2018-09-01T02:12:53.601Z,0
2018-09-01T02:13:54.323Z,0
2018-09-01T02:14:55.030Z,0
2018-09-01T02:15:56.001Z,0
2018-09-01T02:16:56.718Z,0
2018-09-01T02:17:57.445Z,0
2018-09-01T02:18:58.164Z,0
2018-09-01T02:19:59.136Z,0
2018-09-01T02:20:59.858Z,0
2018-09-01T02:22:00.575Z,0
2018-09-01T02:23:01.293Z,0
2018-09-01T02:24:02.017Z,0
2018-09-01T02:25:02.740Z,0
2018-09-01T02:26:03.466Z,0
2018-09-01T02:27:04.183Z,0
2018-09-01T02:28:04.907Z,0
2018-09-01T02:29:05.660Z,0
2018-09-01T02:30:06.631Z,0
2018-09-01T02:31:07.349Z,0
2018-09-01T02:32:08.057Z,0
2018-09-01T02:33:08.765Z,0
2018-09-01T02:34:09.513Z,0
2018-09-01T02:35:10.223Z,0
2018-09-01T02:36:10.929Z,0
2018-09-01T02:37:11.884Z,0
2018-09-01T02:38:12.593Z,0
2018-09-01T02:39:13.549Z,0
2018-09-01T02:40:14.528Z,0
2018-09-01T02:41:15.499Z,0
2018-09-01T02:42:16.218Z,0
2018-09-01T02:43:16.928Z,0
2018-09-01T02:44:17.647Z,0
2018-09-01T02:45:18.360Z,0
2018-09-01T02:46:19.071Z,0
2018-09-01T02:47:19.787Z,0
2018-09-01T02:48:20.502Z,0
2018-09-01T02:49:21.472Z,0
2018-09-01T02:50:22.199Z,0
2018-09-01T02:51:23.169Z,0
2018-09-01T02:52:23.876Z,0
2018-09-01T02:53:24.586Z,0
2018-09-01T02:54:25.545Z,0
2018-09-01T02:55:26.302Z,0
2018-09-01T02:56:27.022Z,0
2018-09-01T02:57:27.746Z,0
2018-09-01T02:58:28.454Z,0
2018-09-01T02:59:29.174Z,0
2018-09-01T03:00:30.148Z,0
2018-09-01T03:01:30.864Z,0
2018-09-01T03:02:31.574Z,0
2018-09-01T03:03:32.286Z,0
2018-09-01T03:04:33.013Z,0
2018-09-01T03:05:33.730Z,0
2018-09-01T03:06:34.488Z,0
2018-09-01T03:07:35.199Z,0
2018-09-01T03:08:35.913Z,0
2018-09-01T03:09:36.628Z,0
2018-09-01T03:10:37.344Z,0
2018-09-01T03:11:38.112Z,0
2018-09-01T03:12:38.817Z,0
2018-09-01T03:13:39.535Z,0
2018-09-01T03:14:40.246Z,0
2018-09-01T03:15:40.967Z,0
2018-09-01T03:16:42.036Z,0
2018-09-01T03:17:42.748Z,0
2018-09-01T03:18:43.461Z,0
2018-09-01T03:19:44.430Z,0
2018-09-01T03:20:45.384Z,0
2018-09-01T03:21:46.103Z,0
2018-09-01T03:22:46.828Z,0
2018-09-01T03:23:47.542Z,0
2018-09-01T03:24:48.506Z,0
2018-09-01T03:25:49.465Z,0
2018-09-01T03:26:50.177Z,0
2018-09-01T03:27:50.887Z,0
2018-09-01T03:28:51.660Z,0
2018-09-01T03:29:52.369Z,0
2018-09-01T03:30:53.323Z,0
2018-09-01T03:31:54.053Z,0
2018-09-01T03:32:54.775Z,0
2018-09-01T03:33:55.474Z,0
2018-09-01T03:34:56.187Z,0
2018-09-01T03:35:56.906Z,0
2018-09-01T03:36:57.626Z,0
2018-09-01T03:37:58.335Z,0
2018-09-01T03:38:59.047Z,0
2018-09-01T03:39:59.777Z,0
2018-09-01T03:41:00.500Z,0
2018-09-01T03:42:01.262Z,0
2018-09-01T03:43:01.987Z,0
2018-09-01T03:44:02.703Z,0
2018-09-01T03:45:03.422Z,0
2018-09-01T03:46:04.144Z,0
2018-09-01T03:47:04.912Z,0
2018-09-01T03:48:05.621Z,0
2018-09-01T03:49:06.331Z,0
2018-09-01T03:50:07.286Z,0
2018-09-01T03:51:08.007Z,0
2018-09-01T03:52:08.719Z,0
2018-09-01T03:53:09.432Z,0
2018-09-01T03:54:10.154Z,0
2018-09-01T03:55:10.869Z,0
2018-09-01T03:56:11.581Z,0
2018-09-01T03:57:12.293Z,0
2018-09-01T03:58:13.266Z,0
2018-09-01T03:59:13.979Z,0
2018-09-01T04:00:14.682Z,0
2018-09-01T04:01:15.387Z,0
2018-09-01T04:02:16.120Z,4
2018-09-01T04:03:16.873Z,4
2018-09-01T04:04:17.592Z,4
2018-09-01T04:05:18.315Z,4
2018-09-01T04:06:19.034Z,4
2018-09-01T04:07:19.999Z,4
2018-09-01T04:08:20.766Z,8
2018-09-01T04:09:21.475Z,8
2018-09-01T04:10:22.220Z,8
2018-09-01T04:11:22.932Z,12
2018-09-01T04:12:23.656Z,12
2018-09-01T04:13:24.425Z,16
2018-09-01T04:14:25.392Z,16
2018-09-01T04:15:26.117Z,20
2018-09-01T04:16:26.843Z,24
2018-09-01T04:17:27.561Z,28
2018-09-01T04:18:28.268Z,32
2018-09-01T04:19:28.988Z,40
2018-09-01T04:20:29.709Z,48
2018-09-01T04:21:30.413Z,56
2018-09-01T04:22:31.135Z,64
2018-09-01T04:23:31.843Z,72
2018-09-01T04:24:32.811Z,80
2018-09-01T04:25:33.532Z,96
2018-09-01T04:26:34.301Z,108
2018-09-01T04:27:35.006Z,116
2018-09-01T04:28:35.729Z,132
2018-09-01T04:29:36.440Z,148
2018-09-01T04:30:37.161Z,168
2018-09-01T04:31:37.886Z,184
2018-09-01T04:32:38.606Z,204
2018-09-01T04:33:39.345Z,224
2018-09-01T04:34:40.057Z,248
2018-09-01T04:35:40.772Z,272
2018-09-01T04:36:41.489Z,300
2018-09-01T04:37:42.272Z,324
2018-09-01T04:38:42.989Z,356
2018-09-01T04:39:43.705Z,388
2018-09-01T04:40:44.421Z,416
2018-09-01T04:41:45.138Z,452
2018-09-01T04:42:45.860Z,488
2018-09-01T04:43:46.586Z,528
2018-09-01T04:44:47.309Z,568
2018-09-01T04:45:48.016Z,608
2018-09-01T04:46:48.726Z,652
2018-09-01T04:47:49.438Z,696
2018-09-01T04:48:50.159Z,740
2018-09-01T04:49:50.869Z,784
2018-09-01T04:50:51.589Z,836
2018-09-01T04:51:52.319Z,876
2018-09-01T04:52:53.033Z,928
2018-09-01T04:53:54.104Z,972
2018-09-01T04:54:54.821Z,1024
2018-09-01T04:55:55.533Z,1072
2018-09-01T04:56:56.259Z,1120
2018-09-01T04:57:56.975Z,1176
2018-09-01T04:58:57.985Z,1228
2018-09-01T04:59:58.694Z,1276
2018-09-01T05:00:59.433Z,1332
2018-09-01T05:02:00.152Z,1388
2018-09-01T05:03:00.869Z,1444
2018-09-01T05:04:01.586Z,1500
2018-09-01T05:05:02.310Z,1564
2018-09-01T05:06:03.035Z,1624
2018-09-01T05:07:03.755Z,1680
2018-09-01T05:08:04.468Z,1740
2018-09-01T05:09:05.252Z,1796
2018-09-01T05:10:05.972Z,1856
2018-09-01T05:11:06.720Z,1916
2018-09-01T05:12:07.408Z,1976
2018-09-01T05:13:08.138Z,2040
2018-09-01T05:14:08.854Z,2096
2018-09-01T05:15:09.572Z,2156
2018-09-01T05:16:10.300Z,2212
2018-09-01T05:17:11.013Z,2272
2018-09-01T05:18:11.738Z,2328
2018-09-01T05:19:12.457Z,2384
2018-09-01T05:20:13.189Z,2444
2018-09-01T05:21:13.913Z,2500
2018-09-01T05:22:14.900Z,2556
2018-09-01T05:23:15.878Z,2612
2018-09-01T05:24:16.589Z,2668
2018-09-01T05:25:17.884Z,2728
2018-09-01T05:26:18.630Z,2776
2018-09-01T05:27:19.367Z,2832
2018-09-01T05:28:20.094Z,2888
2018-09-01T05:29:21.077Z,2948
2018-09-01T05:30:21.809Z,3008
2018-09-01T05:31:22.535Z,3072
2018-09-01T05:32:23.263Z,3136
2018-09-01T05:33:23.982Z,3196
2018-09-01T05:34:24.717Z,3260
2018-09-01T05:35:25.441Z,3332
2018-09-01T05:36:26.271Z,3396
2018-09-01T05:37:26.874Z,3460
2018-09-01T05:38:27.594Z,3528
2018-09-01T05:39:28.327Z,3612
2018-09-01T05:40:29.045Z,3676
2018-09-01T05:41:29.778Z,3744
2018-09-01T05:42:30.506Z,3812
2018-09-01T05:43:31.531Z,3876
2018-09-01T05:44:32.558Z,3932
2018-09-01T05:45:33.273Z,3996
2018-09-01T05:46:33.987Z,4060
2018-09-01T05:47:34.708Z,4148
2018-09-01T05:48:35.420Z,4240
2018-09-01T05:49:36.156Z,4328
2018-09-01T05:50:36.939Z,4400
2018-09-01T05:51:37.613Z,4472
2018-09-01T05:52:38.339Z,4616
2018-09-01T05:53:39.061Z,4832
2018-09-01T05:54:39.790Z,5056
2018-09-01T05:55:40.515Z,5208
2018-09-01T05:56:41.241Z,5260
2018-09-01T05:57:41.954Z,5144
2018-09-01T05:58:42.682Z,5004
2018-09-01T05:59:43.401Z,4932
2018-09-01T06:00:44.368Z,4904
2018-09-01T06:01:45.084Z,4956
2018-09-01T06:02:45.819Z,5016
2018-09-01T06:03:46.533Z,5076
2018-09-01T06:04:47.267Z,4996
2018-09-01T06:05:48.080Z,5244
2018-09-01T06:06:48.759Z,5280
2018-09-01T06:07:49.476Z,5264
2018-09-01T06:08:50.209Z,5376
2018-09-01T06:09:50.944Z,5480
2018-09-01T06:10:51.666Z,5668
2018-09-01T06:11:52.379Z,5860
2018-09-01T06:12:53.099Z,5712
2018-09-01T06:13:53.808Z,5704
2018-09-01T06:14:54.528Z,5872
2018-09-01T06:15:55.259Z,5872
2018-09-01T06:16:55.985Z,5892
2018-09-01T06:17:56.799Z,5964
2018-09-01T06:18:57.425Z,6124
2018-09-01T06:19:58.194Z,6448
2018-09-01T06:20:59.157Z,6580
2018-09-01T06:21:59.877Z,6772
2018-09-01T06:23:00.599Z,6952
2018-09-01T06:24:01.357Z,7280
2018-09-01T06:25:02.111Z,7312
2018-09-01T06:26:02.760Z,7532
2018-09-01T06:27:03.477Z,7940
2018-09-01T06:28:04.230Z,8184
2018-09-01T06:29:04.961Z,7948
2018-09-01T06:30:05.756Z,7632
2018-09-01T06:31:06.416Z,7628
2018-09-01T06:32:07.133Z,8124
2018-09-01T06:33:07.847Z,8072
2018-09-01T06:34:08.607Z,7716
2018-09-01T06:35:09.327Z,7032
2018-09-01T06:36:10.052Z,6736
2018-09-01T06:37:10.787Z,6608
2018-09-01T06:38:11.530Z,6708
2018-09-01T06:39:12.224Z,6580
2018-09-01T06:40:12.942Z,6636
2018-09-01T06:41:13.953Z,6448
2018-09-01T06:42:14.681Z,6584
2018-09-01T06:43:15.400Z,6660
2018-09-01T06:44:16.124Z,6612
2018-09-01T06:45:16.845Z,6652
2018-09-01T06:46:17.573Z,6680
2018-09-01T06:47:18.300Z,6708
2018-09-01T06:48:19.028Z,6732
2018-09-01T06:49:19.770Z,6764
2018-09-01T06:50:20.492Z,6784
2018-09-01T06:51:21.258Z,6816
2018-09-01T06:52:21.942Z,6852
2018-09-01T06:53:22.681Z,6880
2018-09-01T06:54:23.404Z,6924
2018-09-01T06:55:24.179Z,6964
2018-09-01T06:56:25.211Z,6984
2018-09-01T06:57:25.925Z,7056
2018-09-01T06:58:26.648Z,7432
2018-09-01T06:59:27.378Z,7136
2018-09-01T07:00:28.095Z,6556
2018-09-01T07:01:28.870Z,7060
2018-09-01T07:02:29.591Z,7256
2018-09-01T07:03:30.319Z,7284
2018-09-01T07:04:31.044Z,7352
2018-09-01T07:05:31.778Z,7388
2018-09-01T07:06:32.490Z,7444
2018-09-01T07:07:33.260Z,7520
2018-09-01T07:08:34.037Z,7560
2018-09-01T07:09:34.706Z,7512
2018-09-01T07:10:35.416Z,7580
2018-09-01T07:11:36.142Z,7896
2018-09-01T07:12:36.917Z,8640
2018-09-01T07:13:37.883Z,9108
2018-09-01T07:14:38.603Z,9664
2018-09-01T07:15:39.332Z,8904
2018-09-01T07:16:40.062Z,8892
2018-09-01T07:17:40.823Z,8812
2018-09-01T07:18:41.541Z,8864
2018-09-01T07:19:42.269Z,9240
2018-09-01T07:20:42.991Z,10268
2018-09-01T07:21:43.780Z,11140
2018-09-01T07:22:44.502Z,12760
2018-09-01T07:23:45.228Z,13732
2018-09-01T07:24:45.954Z,14348
2018-09-01T07:25:46.677Z,13844
2018-09-01T07:26:47.410Z,12892
2018-09-01T07:27:48.140Z,12760
2018-09-01T07:28:48.863Z,12464
2018-09-01T07:29:49.588Z,13788
2018-09-01T07:30:50.978Z,15344
2018-09-01T07:31:51.404Z,18528
2018-09-01T07:32:52.131Z,20800
2018-09-01T07:33:52.860Z,23904
2018-09-01T07:34:53.584Z,24672
2018-09-01T07:35:54.367Z,25088
2018-09-01T07:36:55.101Z,22400
2018-09-01T07:37:55.822Z,22912
2018-09-01T07:38:56.544Z,21760
2018-09-01T07:39:57.275Z,21216
2018-09-01T07:40:58.003Z,19040
2018-09-01T07:41:58.736Z,16532
2018-09-01T07:42:59.461Z,15832
2018-09-01T07:44:00.188Z,14844
2018-09-01T07:45:00.905Z,12284
2018-09-01T07:46:01.631Z,10172
2018-09-01T07:47:02.351Z,11416
2018-09-01T07:48:03.084Z,10876
2018-09-01T07:49:03.820Z,10788
2018-09-01T07:50:04.566Z,14336
2018-09-01T07:51:05.269Z,15904
2018-09-01T07:52:05.996Z,16032
2018-09-01T07:53:06.737Z,13596
2018-09-01T07:54:07.441Z,18592
2018-09-01T07:55:08.219Z,13560
2018-09-01T07:56:08.997Z,12664
2018-09-01T07:57:09.683Z,15872
2018-09-01T07:58:10.409Z,18720
2018-09-01T07:59:11.129Z,15756
2018-09-01T08:00:11.857Z,18944
2018-09-01T08:01:12.583Z,23392
2018-09-01T08:02:13.312Z,23744
2018-09-01T08:03:14.029Z,24896
2018-09-01T08:04:14.765Z,26112
2018-09-01T08:05:15.756Z,23360
2018-09-01T08:06:16.492Z,18816
2018-09-01T08:07:17.471Z,20320
2018-09-01T08:08:18.194Z,21600
2018-09-01T08:09:18.937Z,21952
2018-09-01T08:10:19.663Z,22592
2018-09-01T08:11:20.390Z,23520
2018-09-01T08:12:21.121Z,19552
2018-09-01T08:13:21.859Z,21376
2018-09-01T08:14:22.639Z,33344
2018-09-01T08:15:23.324Z,49824
2018-09-01T08:16:24.054Z,16160
2018-09-01T08:17:25.029Z,35648
2018-09-01T08:18:25.769Z,35392
2018-09-01T08:19:26.490Z,32352
2018-09-01T08:20:27.228Z,47680
2018-09-01T08:21:27.960Z,50272
2018-09-01T08:22:28.693Z,18432
2018-09-01T08:23:29.413Z,48480
2018-09-01T08:24:30.141Z,16084
2018-09-01T08:25:30.863Z,23360
2018-09-01T08:26:31.591Z,32384
2018-09-01T08:27:32.321Z,57216
2018-09-01T08:28:33.110Z,44192
2018-09-01T08:29:34.149Z,45600
2018-09-01T08:30:34.939Z,29760
2018-09-01T08:31:35.673Z,15864
2018-09-01T08:32:36.406Z,19744
2018-09-01T08:33:37.304Z,19552
2018-09-01T08:34:37.984Z,47680
2018-09-01T08:35:38.724Z,54880
2018-09-01T08:36:39.498Z,54880
2018-09-01T08:37:40.238Z,41248
2018-09-01T08:38:40.961Z,51168
2018-09-01T08:39:41.698Z,39264
2018-09-01T08:40:42.429Z,35616
2018-09-01T08:41:43.208Z,41440
2018-09-01T08:42:43.935Z,17192
2018-09-01T08:43:44.667Z,21856
2018-09-01T08:44:45.431Z,67488
2018-09-01T08:45:46.187Z,25024
2018-09-01T08:46:46.955Z,19008
2018-09-01T08:47:48.061Z,19648
2018-09-01T08:48:48.784Z,35104
2018-09-01T08:49:49.507Z,67808
2018-09-01T08:50:50.238Z,50080
2018-09-01T08:51:50.961Z,17208
2018-09-01T08:52:51.701Z,63168
2018-09-01T08:53:52.429Z,62464
2018-09-01T08:54:53.166Z,63200
2018-09-01T08:55:53.891Z,62240
2018-09-01T08:56:54.963Z,59776
2018-09-01T08:57:55.703Z,61760
2018-09-01T08:58:56.434Z,68448
2018-09-01T08:59:57.171Z,75040
2018-09-01T09:00:57.896Z,26656
2018-09-01T09:01:58.689Z,72320
2018-09-01T09:02:59.401Z,31520
2018-09-01T09:04:00.124Z,25152
2018-09-01T09:05:00.858Z,27104
2018-09-01T09:06:01.828Z,23424
2018-09-01T09:07:02.570Z,52192
2018-09-01T09:08:03.296Z,58880
2018-09-01T09:09:04.029Z,61888
2018-09-01T09:10:05.403Z,22880
2018-09-01T09:11:06.223Z,13844
2018-09-01T09:12:07.304Z,46560
2018-09-01T09:13:08.045Z,11180
2018-09-01T09:14:08.765Z,10852
2018-09-01T09:15:09.500Z,11968
2018-09-01T09:16:11.059Z,67776
2018-09-01T09:17:12.468Z,64736
2018-09-01T09:18:13.208Z,13568
2018-09-01T09:19:13.944Z,12416
2018-09-01T09:20:14.679Z,14540
2018-09-01T09:21:15.413Z,68416
2018-09-01T09:22:16.388Z,14944
2018-09-01T09:23:17.121Z,65856
2018-09-01T09:24:17.862Z,66592
2018-09-01T09:25:18.595Z,69984
2018-09-01T09:26:19.335Z,74400
2018-09-01T09:27:20.073Z,77504
2018-09-01T09:28:20.816Z,77024
2018-09-01T09:29:21.600Z,42560
2018-09-01T09:30:22.334Z,24992
2018-09-01T09:31:23.055Z,25024
2018-09-01T09:32:23.797Z,68864
2018-09-01T09:33:24.522Z,21504
2018-09-01T09:34:25.291Z,19776
2018-09-01T09:35:25.990Z,32480
2018-09-01T09:36:26.725Z,17020
2018-09-01T09:37:27.448Z,18848
2018-09-01T09:38:28.212Z,18784
2018-09-01T09:39:28.926Z,24704
2018-09-01T09:40:29.661Z,23104
2018-09-01T09:41:30.391Z,14912
2018-09-01T09:42:31.182Z,11860
2018-09-01T09:43:31.925Z,11636
2018-09-01T09:44:32.653Z,11724
2018-09-01T09:45:33.380Z,14256
2018-09-01T09:46:34.108Z,67680
2018-09-01T09:47:34.842Z,69824
2018-09-01T09:48:35.559Z,72032
2018-09-01T09:49:36.282Z,73312
2018-09-01T09:50:37.019Z,73344
2018-09-01T09:51:37.750Z,73504
2018-09-01T09:52:38.481Z,67616
2018-09-01T09:53:39.459Z,75520
2018-09-01T09:54:40.254Z,80736
2018-09-01T09:55:40.978Z,80864
2018-09-01T09:56:41.736Z,78048
2018-09-01T09:57:42.470Z,82272
2018-09-01T09:58:43.215Z,84832
2018-09-01T09:59:43.993Z,83104
2018-09-01T10:00:44.718Z,83776
2018-09-01T10:01:45.494Z,82496
2018-09-01T10:02:46.273Z,82720
2018-09-01T10:03:47.007Z,84480
2018-09-01T10:04:47.803Z,65152
2018-09-01T10:05:48.536Z,29440
2018-09-01T10:06:49.272Z,29504
2018-09-01T10:07:50.284Z,30176
2018-09-01T10:08:51.057Z,30368
2018-09-01T10:09:51.866Z,32768
2018-09-01T10:10:52.615Z,34176
2018-09-01T10:11:53.323Z,27872
2018-09-01T10:12:54.053Z,25120
2018-09-01T10:13:54.796Z,24992
2018-09-01T10:14:55.532Z,87392
2018-09-01T10:15:56.299Z,57984
2018-09-01T10:16:56.999Z,20768
2018-09-01T10:17:57.732Z,19136
2018-09-01T10:18:58.461Z,19040
2018-09-01T10:19:59.558Z,18208
2018-09-01T10:21:00.297Z,17172
2018-09-01T10:22:01.031Z,15956
2018-09-01T10:23:01.769Z,15964
2018-09-01T10:24:02.497Z,16608
2018-09-01T10:25:03.275Z,18368
2018-09-01T10:26:04.007Z,19072
2018-09-01T10:27:04.815Z,18848
2018-09-01T10:28:05.470Z,19008
2018-09-01T10:29:06.195Z,19072
2018-09-01T10:30:06.934Z,20096
2018-09-01T10:31:07.668Z,18136
2018-09-01T10:32:08.392Z,15748
2018-09-01T10:33:09.197Z,15632
2018-09-01T10:34:09.919Z,15660
2018-09-01T10:35:10.645Z,15808
2018-09-01T10:36:11.413Z,54080
2018-09-01T10:37:12.109Z,71712
2018-09-01T10:38:13.180Z,18976
2018-09-01T10:39:13.908Z,21088
2018-09-01T10:40:14.642Z,20608
2018-09-01T10:41:15.372Z,22048
2018-09-01T10:42:16.095Z,24736
2018-09-01T10:43:16.871Z,27360
2018-09-01T10:44:17.604Z,71904
2018-09-01T10:45:18.329Z,32320
2018-09-01T10:46:19.063Z,54592
2018-09-01T10:47:19.803Z,27680
2018-09-01T10:48:20.743Z,89504
2018-09-01T10:49:21.475Z,73888
2018-09-01T10:50:22.225Z,31232
2018-09-01T10:51:23.017Z,66688
2018-09-01T10:52:23.680Z,82272
2018-09-01T10:53:24.747Z,81344
2018-09-01T10:54:25.483Z,81408
2018-09-01T10:55:26.210Z,78304
2018-09-01T10:56:26.933Z,74496
2018-09-01T10:57:27.675Z,75104
2018-09-01T10:58:28.406Z,76384
2018-09-01T10:59:29.288Z,83936
2018-09-01T11:00:29.863Z,86176
2018-09-01T11:01:30.589Z,87648
2018-09-01T11:02:31.324Z,85184
2018-09-01T11:03:32.687Z,81376
2018-09-01T11:04:33.414Z,79584
2018-09-01T11:05:34.216Z,81056
2018-09-01T11:06:34.868Z,82432
2018-09-01T11:07:35.617Z,84352
2018-09-01T11:08:36.337Z,87744
2018-09-01T11:09:37.070Z,87616
2018-09-01T11:10:37.799Z,88160
2018-09-01T11:11:38.531Z,90208
2018-09-01T11:12:39.266Z,90944
2018-09-01T11:13:40.005Z,90944
2018-09-01T11:14:40.751Z,93024
2018-09-01T11:15:41.483Z,93792
2018-09-01T11:16:42.220Z,91904
2018-09-01T11:17:42.969Z,36128
2018-09-01T11:18:43.696Z,96128
2018-09-01T11:19:44.423Z,93024
2018-09-01T11:20:45.218Z,25824
2018-09-01T11:21:45.897Z,22880
2018-09-01T11:22:46.621Z,22368
2018-09-01T11:23:47.357Z,22336
2018-09-01T11:24:48.095Z,22784
2018-09-01T11:25:48.819Z,22304
2018-09-01T11:26:49.559Z,24544
2018-09-01T11:27:50.597Z,59232
2018-09-01T11:28:51.309Z,30656
2018-09-01T11:29:52.035Z,26592
2018-09-01T11:30:52.768Z,29984
2018-09-01T11:31:53.504Z,94912
2018-09-01T11:32:54.239Z,93248
2018-09-01T11:33:54.959Z,90496
2018-09-01T11:34:55.701Z,42112
2018-09-01T11:35:56.429Z,72160
2018-09-01T11:36:57.274Z,25344
2018-09-01T11:37:57.896Z,20384
2018-09-01T11:38:58.633Z,19520
2018-09-01T11:39:59.354Z,19104
2018-09-01T11:41:00.087Z,18400
2018-09-01T11:42:00.868Z,18432
2018-09-01T11:43:01.677Z,18976
2018-09-01T11:44:02.336Z,20480
2018-09-01T11:45:03.075Z,22848
2018-09-01T11:46:03.831Z,24160
2018-09-01T11:47:04.617Z,24160
2018-09-01T11:48:05.349Z,24384
2018-09-01T11:49:06.076Z,23872
2018-09-01T11:50:06.803Z,24960
2018-09-01T11:51:07.539Z,25728
2018-09-01T11:52:08.364Z,24480
2018-09-01T11:53:09.052Z,24864
2018-09-01T11:54:09.764Z,34048
2018-09-01T11:55:11.508Z,28192
2018-09-01T11:56:12.549Z,29440
2018-09-01T11:57:13.285Z,87808
2018-09-01T11:58:14.119Z,84128
2018-09-01T11:59:14.847Z,79552
2018-09-01T12:00:15.575Z,73536
2018-09-01T12:01:16.315Z,72832
2018-09-01T12:02:17.091Z,76576
2018-09-01T12:03:18.110Z,81248
2018-09-01T12:04:18.830Z,84384
2018-09-01T12:05:19.567Z,87008
2018-09-01T12:06:20.551Z,88704
2018-09-01T12:07:21.304Z,88672
2018-09-01T12:08:22.030Z,85152
2018-09-01T12:09:22.793Z,84192
2018-09-01T12:10:23.528Z,85472
2018-09-01T12:11:24.264Z,88096
2018-09-01T12:12:24.990Z,90144
2018-09-01T12:13:25.725Z,89120
2018-09-01T12:14:26.470Z,87168
2018-09-01T12:15:27.463Z,83008
2018-09-01T12:16:28.203Z,79872
2018-09-01T12:17:28.929Z,78528
2018-09-01T12:18:29.668Z,80064
2018-09-01T12:19:30.400Z,82144
2018-09-01T12:20:31.129Z,80736
2018-09-01T12:21:31.877Z,80736
2018-09-01T12:22:32.607Z,83040
2018-09-01T12:23:33.333Z,85024
2018-09-01T12:24:34.065Z,79968
2018-09-01T12:25:34.816Z,73088
2018-09-01T12:26:35.551Z,23840
2018-09-01T12:27:36.279Z,24320
2018-09-01T12:28:37.017Z,36448
2018-09-01T12:29:37.752Z,17792
2018-09-01T12:30:38.493Z,17032
2018-09-01T12:31:39.225Z,16280
2018-09-01T12:32:39.959Z,15372
2018-09-01T12:33:40.700Z,15188
2018-09-01T12:34:41.432Z,15936
2018-09-01T12:35:42.168Z,16688
2018-09-01T12:36:42.912Z,17628
2018-09-01T12:37:43.634Z,17860
2018-09-01T12:38:44.378Z,17860
2018-09-01T12:39:45.119Z,17072
2018-09-01T12:40:45.858Z,15844
2018-09-01T12:41:46.628Z,15452
2018-09-01T12:42:47.322Z,15728
2018-09-01T12:43:48.129Z,16704
2018-09-01T12:44:48.876Z,18568
2018-09-01T12:45:49.601Z,48608
2018-09-01T12:46:50.337Z,21536
2018-09-01T12:47:51.337Z,17540
2018-09-01T12:48:52.211Z,16140
2018-09-01T12:49:52.958Z,16152
2018-09-01T12:50:53.735Z,16948
2018-09-01T12:51:54.480Z,21056
2018-09-01T12:52:55.238Z,26112
2018-09-01T12:53:55.996Z,23264
2018-09-01T12:54:57.139Z,21120
2018-09-01T12:55:57.858Z,74496
2018-09-01T12:56:58.594Z,71456
2018-09-01T12:57:59.348Z,67104
2018-09-01T12:59:00.136Z,61152
2018-09-01T13:00:00.873Z,57728
2018-09-01T13:01:01.598Z,60896
2018-09-01T13:02:02.332Z,66880
2018-09-01T13:03:03.059Z,71232
2018-09-01T13:04:03.796Z,71008
2018-09-01T13:05:04.786Z,69184
2018-09-01T13:06:05.521Z,68928
2018-09-01T13:07:06.257Z,65504
2018-09-01T13:08:07.052Z,58368
2018-09-01T13:09:07.722Z,42016
2018-09-01T13:10:08.463Z,36384
2018-09-01T13:11:09.268Z,34528
2018-09-01T13:12:10.052Z,42912
2018-09-01T13:13:10.799Z,39328
2018-09-01T13:14:11.787Z,34048
2018-09-01T13:15:12.907Z,34880
2018-09-01T13:16:13.674Z,26464
2018-09-01T13:17:14.478Z,20864
2018-09-01T13:18:15.252Z,19712
2018-09-01T13:19:15.969Z,18016
2018-09-01T13:20:16.716Z,15292
2018-09-01T13:21:17.458Z,13236
2018-09-01T13:22:18.191Z,12340
2018-09-01T13:23:18.924Z,11792
2018-09-01T13:24:19.670Z,11252
2018-09-01T13:25:20.402Z,11096
2018-09-01T13:26:21.135Z,11092
2018-09-01T13:27:21.870Z,10696
2018-09-01T13:28:22.589Z,10488
2018-09-01T13:29:23.325Z,10292
2018-09-01T13:30:24.075Z,10316
2018-09-01T13:31:24.966Z,10304
2018-09-01T13:32:25.699Z,10256
2018-09-01T13:33:26.419Z,10480
2018-09-01T13:34:27.181Z,10604
2018-09-01T13:35:27.899Z,10356
2018-09-01T13:36:28.631Z,10252
2018-09-01T13:37:29.355Z,10676
2018-09-01T13:38:30.135Z,10872
2018-09-01T13:39:30.864Z,11168
2018-09-01T13:40:31.603Z,11728
2018-09-01T13:41:32.344Z,13784
2018-09-01T13:42:33.089Z,58048